Time;durP1;ratioP1;P1;durP2;ratioP2;P2;SDS_P1;SDS_P2;PMS_P1;PMS_P2;Temp;Humidity;BMP_temperature;BMP_pressure;BME280_temperature;BME280_humidity;BME280_pressure;Samples;Min_cycle;Max_cycle;Signal;HPM_P1;HPM_P2
2023/04/05 00:00:32;;;;;;;13.27;7.05;;;4.50;99.90;;;;;;5115716;28;20047;-60
2023/04/05 00:02:58;;;;;;;13.98;7.32;;;4.50;99.90;;;;;;5114586;28;20069;-59
2023/04/05 00:05:33;;;;;;;10.60;7.25;;;4.40;99.90;;;;;;5114022;28;20078;-61
2023/04/05 00:08:00;;;;;;;11.63;7.35;;;4.40;99.90;;;;;;5114527;28;20040;-61
2023/04/05 00:10:27;;;;;;;11.82;7.53;;;4.30;99.90;;;;;;5114472;28;20089;-61
2023/04/05 00:12:54;;;;;;;11.45;7.22;;;4.40;99.90;;;;;;5116042;28;20404;-60
2023/04/05 00:15:21;;;;;;;15.45;7.68;;;4.40;99.90;;;;;;5115773;28;20047;-61
2023/04/05 00:17:47;;;;;;;15.20;7.63;;;4.30;99.90;;;;;;5115736;28;20072;-61
2023/04/05 00:20:14;;;;;;;15.60;7.55;;;4.30;99.90;;;;;;5114121;28;20043;-61
2023/04/05 00:22:45;;;;;;;13.25;7.90;;;4.30;99.90;;;;;;5115060;28;20497;-60
2023/04/05 00:25:12;;;;;;;13.55;7.43;;;4.20;99.90;;;;;;5115596;28;20040;-61
2023/04/05 00:27:38;;;;;;;13.40;7.88;;;4.20;99.90;;;;;;5115235;28;20355;-61
2023/04/05 00:30:05;;;;;;;11.25;7.43;;;4.10;99.90;;;;;;5115353;28;20061;-60
2023/04/05 00:32:32;;;;;;;12.88;8.00;;;4.20;99.90;;;;;;5115217;28;20039;-60
2023/04/05 00:34:59;;;;;;;13.90;7.47;;;4.20;99.90;;;;;;5114850;28;20040;-61
2023/04/05 00:37:25;;;;;;;13.20;7.43;;;4.10;99.90;;;;;;5113934;28;20482;-59
2023/04/05 00:39:52;;;;;;;12.57;7.38;;;4.10;99.90;;;;;;5113165;28;20044;-59
2023/04/05 00:42:19;;;;;;;16.02;7.88;;;4.10;99.90;;;;;;5114689;28;20466;-59
2023/04/05 00:44:46;;;;;;;13.15;8.13;;;4.00;99.90;;;;;;5113541;28;20497;-60
2023/04/05 00:47:13;;;;;;;18.42;8.90;;;4.00;99.90;;;;;;5113045;28;20054;-61
2023/04/05 00:49:40;;;;;;;13.93;8.98;;;3.90;99.90;;;;;;5113087;28;20036;-61
2023/04/05 00:52:07;;;;;;;11.73;7.82;;;3.90;99.90;;;;;;5114975;28;20028;-61
2023/04/05 00:54:33;;;;;;;14.45;8.27;;;3.80;99.90;;;;;;5114720;28;20047;-61
2023/04/05 00:57:00;;;;;;;13.55;9.30;;;3.80;99.90;;;;;;5112990;28;20044;-61
2023/04/05 00:59:30;;;;;;;15.43;8.88;;;3.80;99.90;;;;;;5114882;28;20079;-60
2023/04/05 01:01:57;;;;;;;16.40;9.32;;;3.80;99.90;;;;;;5112978;28;20047;-60
2023/04/05 01:04:24;;;;;;;18.95;9.23;;;3.70;99.90;;;;;;5114749;28;20071;-60
2023/04/05 01:06:51;;;;;;;17.10;8.75;;;3.70;99.90;;;;;;5114440;28;20096;-60
2023/04/05 01:09:17;;;;;;;14.15;8.30;;;3.80;99.90;;;;;;5114196;28;20079;-61
2023/04/05 01:11:44;;;;;;;13.02;7.95;;;3.70;99.90;;;;;;5112742;28;20036;-60
2023/04/05 01:14:11;;;;;;;14.27;8.18;;;3.70;99.90;;;;;;5114380;28;20035;-60
2023/04/05 01:16:38;;;;;;;16.70;10.48;;;3.70;99.90;;;;;;5112660;28;20048;-59
2023/04/05 01:19:08;;;;;;;17.95;10.18;;;3.70;99.90;;;;;;5113835;28;20536;-59
2023/04/05 01:21:39;;;;;;;12.75;8.55;;;3.70;99.90;;;;;;5113684;28;20707;-61
2023/04/05 01:24:08;;;;;;;16.17;9.13;;;3.70;99.90;;;;;;5112991;28;20527;-62
2023/04/05 01:26:35;;;;;;;12.43;8.55;;;3.70;99.90;;;;;;5114074;28;20091;-61
2023/04/05 01:29:03;;;;;;;13.48;9.32;;;3.70;99.90;;;;;;5114068;28;20097;-60
2023/04/05 01:31:30;;;;;;;14.10;8.15;;;3.80;99.90;;;;;;5114387;28;20035;-61
2023/04/05 01:33:57;;;;;;;14.15;8.10;;;3.80;99.90;;;;;;5114388;28;20122;-61
2023/04/05 01:36:25;;;;;;;13.48;8.02;;;3.90;99.90;;;;;;5113801;28;20446;-61
2023/04/05 01:38:52;;;;;;;11.38;7.72;;;3.90;99.90;;;;;;5112569;28;20044;-61
2023/04/05 01:41:20;;;;;;;12.57;8.20;;;4.00;99.90;;;;;;5113151;28;20079;-61
2023/04/05 01:43:47;;;;;;;11.68;7.80;;;4.00;99.90;;;;;;5112361;28;20048;-60
2023/04/05 01:46:14;;;;;;;13.75;8.07;;;4.00;99.90;;;;;;5112515;28;20139;-61
2023/04/05 01:48:41;;;;;;;15.63;8.95;;;3.90;99.90;;;;;;5112874;28;20622;-62
2023/04/05 01:51:08;;;;;;;14.13;8.13;;;3.90;99.90;;;;;;5113996;28;20381;-61
2023/04/05 01:53:35;;;;;;;14.15;7.88;;;3.90;99.90;;;;;;5112502;28;20043;-60
2023/04/05 01:56:02;;;;;;;11.88;7.70;;;4.00;99.90;;;;;;5114105;28;20070;-61
2023/04/05 01:58:29;;;;;;;13.85;8.07;;;4.00;99.90;;;;;;5112544;28;20139;-60
2023/04/05 02:00:55;;;;;;;11.88;7.93;;;3.90;99.90;;;;;;5112242;28;20048;-60
2023/04/05 02:03:22;;;;;;;11.50;7.82;;;3.90;99.90;;;;;;5113722;28;20051;-59
2023/04/05 02:05:49;;;;;;;15.05;8.40;;;4.00;99.90;;;;;;5113623;28;20542;-61
2023/04/05 02:08:16;;;;;;;11.85;8.30;;;4.00;99.90;;;;;;5112089;28;20070;-61
2023/04/05 02:10:43;;;;;;;12.07;7.88;;;4.00;99.90;;;;;;5113746;28;20036;-61
2023/04/05 02:13:10;;;;;;;13.18;8.10;;;4.00;99.90;;;;;;5112859;28;20036;-60
2023/04/05 02:15:36;;;;;;;14.88;8.63;;;4.00;99.90;;;;;;5114004;28;20046;-61
2023/04/05 02:18:04;;;;;;;13.05;8.15;;;4.00;99.90;;;;;;5113723;28;20056;-60
2023/04/05 02:20:31;;;;;;;13.35;8.05;;;4.00;99.90;;;;;;5113824;28;20047;-58
2023/04/05 02:22:59;;;;;;;13.57;8.68;;;4.00;99.90;;;;;;5112162;28;20047;-61
2023/04/05 02:25:27;;;;;;;13.48;8.02;;;4.00;99.90;;;;;;5113040;28;20100;-61
2023/04/05 02:27:54;;;;;;;14.48;8.15;;;4.00;99.90;;;;;;5113151;28;20036;-59
2023/04/05 02:30:21;;;;;;;11.43;8.48;;;4.00;99.90;;;;;;5113172;28;20089;-59
2023/04/05 02:32:47;;;;;;;12.80;9.00;;;4.00;99.90;;;;;;5113284;28;20545;-58
2023/04/05 02:35:16;;;;;;;11.50;8.15;;;4.00;99.90;;;;;;5117490;28;20040;-59
2023/04/05 02:37:43;;;;;;;13.63;8.65;;;4.00;99.90;;;;;;5117666;28;20097;-61
2023/04/05 02:40:09;;;;;;;13.40;8.50;;;4.00;99.90;;;;;;5115868;28;20127;-62
2023/04/05 02:42:37;;;;;;;15.23;8.57;;;4.00;99.90;;;;;;5117063;28;20374;-55
2023/04/05 02:45:03;;;;;;;14.48;8.40;;;4.00;99.90;;;;;;5117576;28;20128;-60
2023/04/05 02:47:30;;;;;;;14.43;9.70;;;4.00;99.90;;;;;;5098467;28;20442;-59
2023/04/05 02:49:58;;;;;;;11.90;8.77;;;4.10;99.90;;;;;;5115651;28;20424;-60
2023/04/05 02:52:31;;;;;;;16.25;8.93;;;4.10;99.90;;;;;;5116137;28;20040;-62
2023/04/05 02:54:58;;;;;;;12.27;8.13;;;4.10;99.90;;;;;;5117118;28;20028;-59
2023/04/05 02:57:28;;;;;;;12.18;8.27;;;4.10;99.90;;;;;;5117357;28;20044;-61
2023/04/05 03:00:11;;;;;;;12.27;7.88;;;4.10;99.90;;;;;;5115483;28;20051;-59
2023/04/05 03:02:39;;;;;;;14.90;8.77;;;4.20;99.90;;;;;;5115786;28;20493;-61
2023/04/05 03:05:06;;;;;;;12.98;8.63;;;4.20;99.90;;;;;;5117329;28;20039;-62
2023/04/05 03:07:34;;;;;;;14.02;9.05;;;4.20;99.90;;;;;;5115873;28;20048;-62
2023/04/05 03:10:04;;;;;;;14.98;8.80;;;4.20;99.90;;;;;;5115431;28;20044;-60
2023/04/05 03:12:36;;;;;;;12.85;8.90;;;4.20;99.90;;;;;;5115490;28;20044;-60
2023/04/05 03:15:05;;;;;;;15.38;9.25;;;4.30;99.90;;;;;;5115462;28;20050;-59
2023/04/05 03:17:37;;;;;;;13.90;8.95;;;4.20;99.90;;;;;;5116899;28;20032;-60
2023/04/05 03:20:08;;;;;;;16.17;10.32;;;4.20;99.90;;;;;;5115581;28;20440;-61
2023/04/05 03:22:36;;;;;;;15.57;10.23;;;4.30;99.90;;;;;;5115631;28;20261;-60
2023/04/05 03:25:04;;;;;;;17.85;9.48;;;4.30;99.90;;;;;;5115310;28;20069;-60
2023/04/05 03:27:35;;;;;;;13.32;9.18;;;4.30;99.90;;;;;;5115069;28;20097;-61
2023/04/05 03:30:09;;;;;;;13.95;9.73;;;4.40;99.90;;;;;;5115314;28;20047;-58
2023/04/05 03:32:40;;;;;;;13.57;9.77;;;4.40;99.90;;;;;;5114807;28;20075;-61
2023/04/05 03:35:28;;;;;;;14.30;9.18;;;4.40;99.90;;;;;;5108835;28;20047;-59
2023/04/05 03:37:55;;;;;;;13.63;9.30;;;4.40;99.90;;;;;;5115096;28;20051;-60
2023/04/05 03:40:22;;;;;;;13.00;9.20;;;4.40;99.90;;;;;;5115186;28;20088;-60
2023/04/05 03:42:50;;;;;;;13.00;8.82;;;4.50;99.90;;;;;;5098833;28;20043;-62
2023/04/05 03:45:17;;;;;;;12.30;9.23;;;4.50;99.90;;;;;;5115573;28;20048;-60
2023/04/05 03:47:50;;;;;;;13.88;9.07;;;4.50;99.90;;;;;;5114548;28;20539;-61
2023/04/05 03:50:17;;;;;;;13.85;9.30;;;4.50;99.90;;;;;;5114332;28;20043;-60
2023/04/05 03:52:45;;;;;;;12.80;8.90;;;4.50;99.90;;;;;;5114416;28;20405;-59
2023/04/05 03:55:12;;;;;;;13.48;9.65;;;4.40;99.90;;;;;;5114315;28;20042;-59
2023/04/05 03:57:39;;;;;;;14.85;9.50;;;4.40;99.90;;;;;;5114506;28;20044;-59
2023/04/05 04:00:22;;;;;;;17.83;9.90;;;4.40;99.90;;;;;;5114383;28;20044;-60
2023/04/05 04:03:13;;;;;;;13.18;9.68;;;4.50;99.90;;;;;;5110133;27;20047;-61
2023/04/05 04:05:44;;;;;;;13.63;10.05;;;4.40;99.90;;;;;;5114368;28;20493;-61
2023/04/05 04:08:12;;;;;;;16.10;10.10;;;4.40;99.90;;;;;;5115482;28;20148;-61
2023/04/05 04:10:39;;;;;;;16.35;10.05;;;4.40;99.90;;;;;;5114067;28;20035;-60
2023/04/05 04:13:18;;;;;;;20.20;10.77;;;4.40;99.90;;;;;;5115548;28;20427;-58
2023/04/05 04:15:51;;;;;;;15.95;10.63;;;4.40;99.90;;;;;;5114465;28;20068;-61
2023/04/05 04:18:31;;;;;;;18.23;10.95;;;4.40;99.90;;;;;;5114567;28;20048;-63
2023/04/05 04:21:27;;;;;;;17.47;11.57;;;4.40;99.90;;;;;;5105005;28;20043;-61
2023/04/05 04:24:17;;;;;;;18.60;12.77;;;4.40;99.90;;;;;;5114711;28;20368;-61
2023/04/05 04:27:00;;;;;;;19.77;12.55;;;4.40;99.90;;;;;;5113632;28;20501;-61
2023/04/05 04:29:45;;;;;;;17.55;13.32;;;4.40;99.90;;;;;;5113565;28;20043;-60
2023/04/05 04:32:26;;;;;;;18.48;13.65;;;4.40;99.90;;;;;;5115140;28;20047;-61
2023/04/05 04:35:24;;;;;;;21.48;14.48;;;4.40;99.90;;;;;;5114888;28;20512;-61
2023/04/05 04:37:57;;;;;;;21.65;14.40;;;4.40;99.90;;;;;;5113496;28;20047;-61
2023/04/05 04:40:52;;;;;;;19.58;13.15;;;4.40;99.90;;;;;;5098616;28;20134;-61
2023/04/05 04:43:45;;;;;;;19.50;14.80;;;4.40;99.90;;;;;;5113972;28;20071;-60
2023/04/05 04:46:33;;;;;;;19.77;14.45;;;4.40;99.90;;;;;;5098339;28;20044;-60
2023/04/05 04:49:06;;;;;;;17.17;12.43;;;4.40;99.90;;;;;;5113554;28;20047;-60
2023/04/05 04:51:33;;;;;;;19.15;13.25;;;4.40;99.90;;;;;;5114846;28;20088;-61
2023/04/05 04:54:00;;;;;;;20.25;12.82;;;4.40;99.90;;;;;;5114514;28;20043;-62
2023/04/05 04:56:27;;;;;;;20.70;13.98;;;4.40;99.90;;;;;;5114224;28;20097;-60
2023/04/05 04:58:55;;;;;;;18.98;13.15;;;4.40;99.90;;;;;;5113364;28;20037;-61
2023/04/05 05:01:23;;;;;;;18.42;14.35;;;4.40;99.90;;;;;;5114792;28;20043;-62
2023/04/05 05:03:50;;;;;;;18.77;13.57;;;4.40;99.90;;;;;;5114558;28;20050;-60
2023/04/05 05:06:28;;;;;;;17.38;13.18;;;4.40;99.90;;;;;;5113595;28;20473;-61
2023/04/05 05:08:55;;;;;;;20.02;13.60;;;4.40;99.90;;;;;;5114093;28;20115;-60
2023/04/05 05:11:23;;;;;;;18.20;14.30;;;4.40;99.90;;;;;;5114454;28;20036;-60
2023/04/05 05:13:50;;;;;;;20.73;14.50;;;4.50;99.90;;;;;;5114221;28;20089;-60
2023/04/05 05:16:22;;;;;;;20.35;13.85;;;4.50;99.90;;;;;;5113302;28;20035;-62
2023/04/05 05:18:49;;;;;;;22.30;14.35;;;4.50;99.90;;;;;;5114730;28;20115;-61
2023/04/05 05:21:16;;;;;;;21.73;14.48;;;4.50;99.90;;;;;;5114619;28;20044;-59
2023/04/05 05:23:51;;;;;;;20.10;13.63;;;4.50;99.90;;;;;;5113051;28;20434;-61
2023/04/05 05:26:18;;;;;;;19.42;13.35;;;4.60;99.90;;;;;;5113339;28;20039;-59
2023/04/05 05:28:47;;;;;;;20.90;14.43;;;4.60;99.90;;;;;;5114089;28;20114;-60
2023/04/05 05:31:16;;;;;;;21.33;13.70;;;4.70;99.90;;;;;;5114400;28;20047;-61
2023/04/05 05:33:48;;;;;;;19.63;13.73;;;4.70;99.90;;;;;;5113984;28;20063;-62
2023/04/05 05:36:15;;;;;;;21.58;14.13;;;4.70;99.90;;;;;;5114308;28;20046;-61
2023/04/05 05:38:42;;;;;;;22.98;13.77;;;4.70;99.90;;;;;;5114089;28;20458;-62
2023/04/05 05:41:09;;;;;;;25.48;14.13;;;4.80;99.90;;;;;;5114199;28;20039;-61
2023/04/05 05:43:35;;;;;;;20.10;13.93;;;4.80;99.90;;;;;;5114065;28;20093;-62
2023/04/05 05:46:02;;;;;;;19.67;13.82;;;4.80;99.90;;;;;;5113683;28;20054;-61
2023/04/05 05:48:29;;;;;;;20.73;14.23;;;4.80;99.90;;;;;;5114356;28;20051;-62
2023/04/05 05:51:00;;;;;;;21.38;13.77;;;4.80;99.90;;;;;;5114104;28;20035;-59
2023/04/05 05:53:27;;;;;;;21.83;13.68;;;4.80;99.90;;;;;;5112544;28;20054;-60
2023/04/05 05:55:54;;;;;;;18.88;13.93;;;4.80;99.90;;;;;;5114359;28;20040;-60
2023/04/05 05:58:21;;;;;;;18.90;13.57;;;4.80;99.90;;;;;;5113849;28;20100;-60
2023/04/05 06:00:50;;;;;;;19.60;13.80;;;4.90;99.90;;;;;;5113728;28;20097;-61
2023/04/05 06:03:17;;;;;;;19.13;13.23;;;4.80;99.90;;;;;;5113835;28;20432;-61
2023/04/05 06:05:45;;;;;;;19.75;13.88;;;4.80;99.90;;;;;;5113869;28;20048;-60
2023/04/05 06:08:12;;;;;;;20.60;13.80;;;4.80;99.90;;;;;;5115372;28;20039;-60
2023/04/05 06:10:39;;;;;;;20.48;14.82;;;4.70;99.90;;;;;;5118220;28;20036;-61
2023/04/05 06:13:06;;;;;;;22.17;14.63;;;4.70;99.90;;;;;;5117647;28;20035;-61
2023/04/05 06:15:32;;;;;;;21.42;14.95;;;4.70;99.90;;;;;;5118253;28;20096;-60
2023/04/05 06:17:59;;;;;;;20.92;14.50;;;4.70;99.90;;;;;;5117913;28;20424;-59
2023/04/05 06:20:26;;;;;;;23.17;15.70;;;4.80;99.90;;;;;;5117588;28;20059;-62
2023/04/05 06:22:53;;;;;;;22.15;15.23;;;4.80;99.90;;;;;;5117632;28;20478;-60
2023/04/05 06:25:19;;;;;;;21.38;15.48;;;4.80;99.90;;;;;;5118064;28;20044;-62
2023/04/05 06:27:46;;;;;;;18.73;15.45;;;4.80;99.90;;;;;;5117911;28;20047;-61
2023/04/05 06:30:13;;;;;;;21.92;14.57;;;4.90;99.90;;;;;;5117464;28;20039;-60
2023/04/05 06:32:39;;;;;;;23.05;15.80;;;4.90;99.90;;;;;;5117887;28;20044;-61
2023/04/05 06:35:06;;;;;;;22.50;15.13;;;4.90;99.90;;;;;;5116140;28;20039;-61
2023/04/05 06:37:33;;;;;;;19.38;15.70;;;4.90;99.90;;;;;;5117246;28;20036;-61
2023/04/05 06:40:00;;;;;;;22.63;15.63;;;4.90;99.90;;;;;;5116969;28;20036;-61
2023/04/05 06:42:26;;;;;;;27.20;17.02;;;5.00;99.90;;;;;;5115943;28;20412;-61
2023/04/05 06:44:58;;;;;;;24.25;16.10;;;5.00;99.90;;;;;;5115748;28;20055;-61
2023/04/05 06:47:26;;;;;;;20.98;15.93;;;5.10;99.90;;;;;;5116740;28;20048;-62
2023/04/05 06:49:52;;;;;;;23.02;15.07;;;5.20;99.90;;;;;;5117360;28;20040;-62
2023/04/05 06:52:19;;;;;;;23.08;16.08;;;5.20;99.90;;;;;;5116780;28;20035;-62
2023/04/05 06:54:46;;;;;;;22.55;15.75;;;5.30;99.90;;;;;;5117086;28;20043;-61
2023/04/05 06:57:13;;;;;;;15.57;12.43;;;5.40;99.90;;;;;;5116821;28;20067;-61
2023/04/05 06:59:39;;;;;;;17.40;12.50;;;5.50;99.90;;;;;;5116664;28;20035;-63
2023/04/05 07:02:06;;;;;;;14.85;10.32;;;5.60;99.90;;;;;;5116801;27;20423;-62
2023/04/05 07:04:35;;;;;;;18.63;10.05;;;5.70;99.90;;;;;;5115682;28;20058;-62
2023/04/05 07:07:02;;;;;;;13.00;8.38;;;5.90;99.90;;;;;;5116061;28;20036;-63
2023/04/05 07:09:31;;;;;;;16.00;8.10;;;6.00;99.90;;;;;;5115699;28;20043;-62
2023/04/05 07:11:58;;;;;;;12.10;7.18;;;6.10;99.90;;;;;;5114929;28;20093;-63
2023/04/05 07:14:25;;;;;;;12.90;7.60;;;6.20;99.90;;;;;;5114708;28;20138;-63
2023/04/05 07:16:52;;;;;;;13.38;7.18;;;6.40;99.90;;;;;;5115859;28;20118;-62
2023/04/05 07:19:18;;;;;;;13.05;7.55;;;6.50;99.90;;;;;;5115349;28;20059;-63
2023/04/05 07:21:45;;;;;;;12.10;7.03;;;6.60;99.90;;;;;;5115611;28;20553;-62
2023/04/05 07:24:12;;;;;;;15.95;7.15;;;6.80;99.90;;;;;;5115842;28;20082;-62
2023/04/05 07:26:38;;;;;;;13.25;7.70;;;6.90;99.90;;;;;;5115545;28;20440;-62
2023/04/05 07:29:07;;;;;;;11.30;7.20;;;7.00;99.90;;;;;;5115703;28;20443;-62
2023/04/05 07:31:34;;;;;;;13.40;6.60;;;7.10;99.90;;;;;;5115627;28;20118;-62
2023/04/05 07:34:01;;;;;;;13.00;7.15;;;7.20;99.90;;;;;;5115483;28;20043;-62
2023/04/05 07:36:29;;;;;;;11.68;6.07;;;7.30;99.90;;;;;;5111683;28;20122;-61
2023/04/05 07:38:56;;;;;;;11.52;6.75;;;7.40;99.90;;;;;;5115335;28;20040;-62
2023/04/05 07:41:23;;;;;;;9.82;6.22;;;7.50;99.90;;;;;;5100512;28;20075;-60
2023/04/05 07:43:50;;;;;;;9.88;5.60;;;7.60;99.90;;;;;;5095911;28;20089;-63
2023/04/05 07:46:16;;;;;;;14.13;6.18;;;7.70;99.90;;;;;;5095335;28;20078;-61
2023/04/05 07:48:43;;;;;;;11.80;6.35;;;7.80;99.90;;;;;;5094030;28;20130;-63
2023/04/05 07:51:11;;;;;;;12.50;5.72;;;7.90;99.90;;;;;;5095800;28;20475;-63
2023/04/05 07:53:37;;;;;;;13.43;6.20;;;7.90;99.90;;;;;;5105558;28;20054;-64
2023/04/05 07:56:04;;;;;;;12.90;5.72;;;8.00;99.90;;;;;;5104896;28;20032;-63
2023/04/05 07:58:31;;;;;;;11.40;6.30;;;8.10;99.90;;;;;;5100348;28;20112;-61
2023/04/05 08:00:58;;;;;;;9.82;6.13;;;8.20;99.90;;;;;;5098832;28;20127;-61
2023/04/05 08:03:25;;;;;;;11.38;5.55;;;8.30;99.90;;;;;;5094651;28;20044;-62
2023/04/05 08:05:51;;;;;;;12.48;6.45;;;8.30;99.90;;;;;;5107818;28;20044;-62
2023/04/05 08:08:20;;;;;;;9.00;5.95;;;8.40;99.90;;;;;;5094990;28;20036;-62
2023/04/05 08:10:47;;;;;;;10.45;6.18;;;8.50;99.90;;;;;;5094610;28;20513;-62
2023/04/05 08:13:13;;;;;;;9.80;6.32;;;8.50;99.90;;;;;;5103717;28;20048;-63
2023/04/05 08:15:40;;;;;;;11.52;5.72;;;8.60;99.90;;;;;;5114078;28;20044;-61
2023/04/05 08:18:07;;;;;;;9.90;5.63;;;8.70;99.90;;;;;;5099797;28;20036;-63
2023/04/05 08:20:37;;;;;;;10.77;5.85;;;8.70;99.90;;;;;;5094312;28;20071;-62
2023/04/05 08:23:05;;;;;;;9.43;5.75;;;8.80;99.90;;;;;;5103645;28;20039;-62
2023/04/05 08:25:32;;;;;;;10.10;5.45;;;8.90;99.90;;;;;;5114059;28;20451;-63
2023/04/05 08:27:58;;;;;;;11.50;6.32;;;8.80;99.90;;;;;;5097433;28;20062;-62
2023/04/05 08:30:26;;;;;;;9.18;5.20;;;8.90;99.90;;;;;;5094783;28;20040;-63
2023/04/05 08:32:53;;;;;;;9.57;5.13;;;9.00;99.90;;;;;;5094409;28;20058;-62
2023/04/05 08:35:20;;;;;;;9.40;4.85;;;9.10;99.90;;;;;;5094872;28;20091;-62
2023/04/05 08:37:47;;;;;;;9.98;5.10;;;9.10;99.90;;;;;;5094523;28;20051;-63
2023/04/05 08:40:14;;;;;;;8.65;4.88;;;9.10;99.90;;;;;;5093747;28;20043;-62
2023/04/05 08:42:40;;;;;;;9.55;4.55;;;9.20;99.90;;;;;;5109974;28;20035;-62
2023/04/05 08:45:07;;;;;;;7.40;4.85;;;9.20;99.90;;;;;;5113820;28;20118;-62
2023/04/05 08:47:34;;;;;;;7.80;5.10;;;9.30;99.90;;;;;;5113473;28;20054;-63
2023/04/05 08:50:01;;;;;;;9.05;4.93;;;9.40;99.90;;;;;;5113454;28;20093;-62
2023/04/05 08:52:27;;;;;;;10.07;4.35;;;9.50;99.90;;;;;;5113882;28;20063;-62
2023/04/05 08:54:55;;;;;;;8.57;4.85;;;9.60;99.90;;;;;;5113538;28;20118;-62
2023/04/05 08:57:21;;;;;;;10.52;4.70;;;9.60;99.90;;;;;;5113658;28;20044;-62
2023/04/05 08:59:48;;;;;;;8.15;4.93;;;9.60;99.90;;;;;;5110532;28;20070;-63
2023/04/05 09:02:15;;;;;;;8.15;4.40;;;9.60;99.90;;;;;;5104888;28;20036;-62
2023/04/05 09:04:43;;;;;;;10.55;4.85;;;9.60;99.90;;;;;;5094043;28;20044;-63
2023/04/05 09:07:10;;;;;;;10.05;4.85;;;9.70;99.90;;;;;;5094026;28;20044;-63
2023/04/05 09:09:37;;;;;;;15.00;9.80;;;9.70;99.90;;;;;;5094032;28;20044;-63
2023/04/05 09:12:04;;;;;;;8.10;4.80;;;9.80;99.90;;;;;;5093926;28;20462;-63
2023/04/05 09:14:31;;;;;;;8.82;5.05;;;9.80;99.90;;;;;;5093841;28;20032;-63
2023/04/05 09:16:57;;;;;;;11.25;5.13;;;9.90;99.90;;;;;;5093636;28;20459;-62
2023/04/05 09:19:24;;;;;;;6.70;4.43;;;9.90;99.90;;;;;;5093755;28;20086;-63
2023/04/05 09:21:51;;;;;;;10.15;5.30;;;10.00;99.90;;;;;;5093620;28;20048;-63
2023/04/05 09:24:18;;;;;;;30.65;5.60;;;10.10;99.90;;;;;;5094169;28;20366;-63
2023/04/05 09:26:45;;;;;;;19.08;5.80;;;10.20;99.90;;;;;;5093803;28;20036;-65
2023/04/05 09:29:11;;;;;;;9.65;5.00;;;10.30;99.90;;;;;;5098915;28;20493;-62
2023/04/05 09:31:38;;;;;;;9.13;5.22;;;10.30;99.90;;;;;;5112956;28;20055;-63
2023/04/05 09:34:08;;;;;;;10.88;5.35;;;10.30;99.90;;;;;;5111987;28;20032;-64
2023/04/05 09:36:35;;;;;;;9.32;5.28;;;10.10;99.90;;;;;;5113008;28;20390;-63
2023/04/05 09:39:01;;;;;;;10.80;5.75;;;10.00;99.90;;;;;;5112898;28;20450;-63
2023/04/05 09:41:28;;;;;;;10.63;5.15;;;9.90;99.90;;;;;;5111387;28;20047;-63
2023/04/05 09:43:55;;;;;;;12.57;5.88;;;9.70;99.90;;;;;;5112776;28;20445;-63
2023/04/05 09:46:22;;;;;;;10.30;5.63;;;9.70;99.90;;;;;;5112694;28;20401;-62
2023/04/05 09:48:48;;;;;;;11.85;5.57;;;9.70;99.90;;;;;;5112823;28;20390;-63
2023/04/05 09:51:15;;;;;;;12.07;5.90;;;9.70;99.90;;;;;;5112956;28;20520;-63
2023/04/05 09:53:42;;;;;;;8.68;5.22;;;9.70;99.90;;;;;;5112787;28;20063;-63
2023/04/05 09:56:10;;;;;;;10.00;5.80;;;9.70;99.90;;;;;;5112856;28;20047;-63
2023/04/05 09:58:36;;;;;;;25.75;9.38;;;9.80;99.90;;;;;;5111442;28;20482;-63
2023/04/05 10:01:03;;;;;;;13.85;5.40;;;9.90;99.90;;;;;;5093325;28;20122;-63
2023/04/05 10:03:42;;;;;;;10.38;5.38;;;9.90;99.90;;;;;;5093199;28;20044;-63
2023/04/05 10:06:09;;;;;;;8.20;4.53;;;10.00;99.90;;;;;;5093141;28;20040;-63
2023/04/05 10:08:36;;;;;;;7.80;4.40;;;10.00;99.90;;;;;;5093183;28;20109;-63
2023/04/05 10:11:03;;;;;;;8.40;4.32;;;10.00;99.90;;;;;;5092967;28;20042;-63
2023/04/05 10:13:29;;;;;;;13.25;4.82;;;10.00;99.90;;;;;;5093042;28;20036;-63
2023/04/05 10:15:56;;;;;;;10.65;5.07;;;10.10;99.90;;;;;;5093193;28;20069;-63
2023/04/05 10:18:23;;;;;;;12.32;5.25;;;10.10;99.90;;;;;;5093129;28;20047;-63
2023/04/05 10:20:50;;;;;;;15.32;5.63;;;10.20;99.90;;;;;;5092924;28;20499;-64
2023/04/05 10:23:17;;;;;;;9.73;5.45;;;10.20;99.90;;;;;;5092923;28;20044;-63
2023/04/05 10:25:44;;;;;;;8.48;4.90;;;10.30;99.90;;;;;;5092784;28;20438;-64
2023/04/05 10:28:11;;;;;;;7.55;4.43;;;10.30;99.90;;;;;;5091769;28;20044;-64
2023/04/05 10:30:37;;;;;;;10.25;4.35;;;10.40;99.90;;;;;;5101630;28;20067;-63
2023/04/05 10:33:05;;;;;;;10.35;4.47;;;10.50;99.90;;;;;;5112321;28;20046;-63
2023/04/05 10:35:32;;;;;;;19.42;5.18;;;10.60;99.90;;;;;;5108670;28;20524;-63
2023/04/05 10:37:58;;;;;;;11.13;4.80;;;10.70;99.90;;;;;;5091648;28;20032;-62
2023/04/05 10:40:29;;;;;;;10.48;3.88;;;10.80;99.90;;;;;;5097440;28;20047;-63
2023/04/05 10:42:55;;;;;;;9.35;4.50;;;10.90;98.80;;;;;;5092788;28;20048;-64
2023/04/05 10:45:22;;;;;;;9.63;4.60;;;10.90;98.50;;;;;;5092532;28;20068;-63
2023/04/05 10:47:49;;;;;;;6.15;4.53;;;10.90;99.00;;;;;;5092995;28;20040;-64
2023/04/05 10:50:16;;;;;;;15.77;5.65;;;11.00;99.20;;;;;;5092814;28;20047;-63
2023/04/05 10:52:43;;;;;;;14.25;4.57;;;11.10;99.10;;;;;;5092595;28;20044;-63
2023/04/05 10:55:10;;;;;;;8.45;5.30;;;11.20;98.20;;;;;;5095841;28;20413;-64
2023/04/05 10:57:36;;;;;;;9.48;4.68;;;11.30;98.30;;;;;;5096330;28;20039;-65
2023/04/05 11:00:03;;;;;;;22.20;5.32;;;11.50;97.70;;;;;;5102541;28;20130;-64
2023/04/05 11:02:30;;;;;;;7.10;4.00;;;11.60;97.80;;;;;;5116100;28;20386;-64
2023/04/05 11:04:58;;;;;;;10.02;4.57;;;11.70;96.30;;;;;;5115591;28;20065;-64
2023/04/05 11:07:24;;;;;;;9.48;4.40;;;11.80;96.00;;;;;;5102320;28;20470;-63
2023/04/05 11:09:51;;;;;;;20.58;5.07;;;11.80;96.20;;;;;;5101165;28;20127;-64
2023/04/05 11:12:18;;;;;;;14.40;5.00;;;11.90;97.10;;;;;;5096105;28;20055;-63
2023/04/05 11:14:45;;;;;;;14.10;5.07;;;12.10;97.30;;;;;;5096084;28;20119;-63
2023/04/05 11:17:11;;;;;;;20.45;5.43;;;12.20;96.30;;;;;;5095675;28;20044;-62
2023/04/05 11:19:38;;;;;;;16.92;5.40;;;12.20;95.90;;;;;;5110854;28;20576;-62
2023/04/05 11:22:06;;;;;;;16.25;5.88;;;12.30;96.30;;;;;;5115794;27;20478;-63
2023/04/05 11:24:32;;;;;;;15.27;5.13;;;12.40;95.30;;;;;;5114364;28;20035;-62
2023/04/05 11:27:00;;;;;;;10.35;5.57;;;12.50;95.30;;;;;;5114411;28;20054;-59
2023/04/05 11:29:27;;;;;;;14.63;5.55;;;12.50;95.90;;;;;;5108332;28;20060;-61
2023/04/05 11:31:53;;;;;;;10.07;6.32;;;12.50;95.10;;;;;;5115529;27;20042;-63
2023/04/05 11:34:20;;;;;;;7.78;5.60;;;12.50;94.60;;;;;;5109876;28;20036;-63
2023/04/05 11:36:49;;;;;;;12.18;5.65;;;12.50;94.80;;;;;;5115487;28;20100;-63
2023/04/05 11:39:16;;;;;;;15.25;6.63;;;12.60;93.80;;;;;;5114268;28;20135;-63
2023/04/05 11:41:42;;;;;;;15.05;6.45;;;12.70;94.60;;;;;;5108493;27;20044;-62
2023/04/05 11:44:09;;;;;;;10.48;5.45;;;12.80;95.10;;;;;;5095389;28;20509;-63
2023/04/05 11:46:36;;;;;;;9.45;5.25;;;13.00;94.10;;;;;;5095184;28;20062;-63
2023/04/05 11:49:03;;;;;;;9.38;5.28;;;13.10;93.70;;;;;;5114487;28;20379;-63
2023/04/05 11:51:29;;;;;;;9.20;4.93;;;13.00;92.40;;;;;;5115366;28;20104;-63
2023/04/05 11:53:56;;;;;;;9.27;5.00;;;13.00;93.80;;;;;;5113040;28;20118;-63
2023/04/05 11:56:23;;;;;;;13.98;5.00;;;13.00;94.50;;;;;;5115277;28;20036;-63
2023/04/05 11:58:50;;;;;;;6.28;4.72;;;13.10;94.40;;;;;;5114366;28;20035;-63
2023/04/05 12:01:17;;;;;;;8.55;5.20;;;13.20;93.90;;;;;;5114539;28;20044;-63
2023/04/05 12:03:47;;;;;;;9.35;4.50;;;13.30;94.00;;;;;;5110015;28;20044;-61
2023/04/05 12:06:14;;;;;;;9.27;4.57;;;13.40;94.00;;;;;;5114221;28;20538;-62
2023/04/05 12:08:41;;;;;;;8.20;4.70;;;13.50;93.00;;;;;;5114552;28;20544;-63
2023/04/05 12:11:08;;;;;;;10.48;4.50;;;13.50;93.50;;;;;;5097296;28;20485;-61
2023/04/05 12:13:34;;;;;;;9.15;4.15;;;13.60;93.60;;;;;;5094869;28;20387;-60
2023/04/05 12:16:01;;;;;;;13.05;5.25;;;13.70;93.10;;;;;;5099129;28;20126;-62
2023/04/05 12:18:28;;;;;;;8.05;4.30;;;13.80;92.60;;;;;;5095891;28;20048;-61
2023/04/05 12:20:54;;;;;;;7.38;4.47;;;13.80;92.80;;;;;;5099105;28;20050;-61
2023/04/05 12:23:21;;;;;;;8.93;4.43;;;13.80;92.60;;;;;;5114241;28;20064;-60
2023/04/05 12:25:48;;;;;;;8.55;4.65;;;13.90;93.50;;;;;;5096117;28;20095;-61
2023/04/05 12:28:15;;;;;;;9.48;4.40;;;14.00;93.60;;;;;;5093245;28;20051;-58
2023/04/05 12:30:41;;;;;;;16.70;7.88;;;14.00;93.80;;;;;;5098179;28;20043;-61
2023/04/05 12:33:08;;;;;;;9.75;4.50;;;14.10;94.10;;;;;;5114009;28;20047;-59
2023/04/05 12:35:35;;;;;;;8.05;4.97;;;14.00;93.70;;;;;;5114216;28;20044;-57
2023/04/05 12:38:02;;;;;;;8.75;4.50;;;14.10;93.80;;;;;;5113867;27;20051;-56
2023/04/05 12:40:29;;;;;;;76.65;10.50;;;14.20;94.00;;;;;;5113862;28;20096;-61
2023/04/05 12:42:56;;;;;;;18.70;5.47;;;14.20;93.80;;;;;;5113905;28;20051;-59
2023/04/05 12:45:23;;;;;;;29.20;6.50;;;14.20;93.40;;;;;;5113708;28;20553;-60
2023/04/05 12:47:50;;;;;;;55.22;8.30;;;14.20;93.30;;;;;;5113842;28;20039;-59